Time;durP1;ratioP1;P1;durP2;ratioP2;P2;SDS_P1;SDS_P2;PMS_P1;PMS_P2;Temp;Humidity;BMP_temperature;BMP_pressure;BME280_temperature;BME280_humidity;BME280_pressure;Samples;Min_cycle;Max_cycle;Signal;HPM_P1;HPM_P2
2023/03/10 00:01:33;;;;;;;13.37;10.13;;;;;;;-145.52;100.00;65322.94;5120198;28;20462;-61
2023/03/10 00:04:59;;;;;;;13.20;10.53;;;;;;;-145.52;100.00;65322.94;5121075;28;20447;-61
2023/03/10 00:08:25;;;;;;;13.03;9.87;;;;;;;-145.52;100.00;65322.94;5129385;27;20469;-61
2023/03/10 00:11:51;;;;;;;15.60;11.27;;;;;;;-145.52;100.00;65322.94;5112195;28;20493;-61
2023/03/10 00:15:16;;;;;;;14.07;10.93;;;;;;;-145.52;100.00;65322.94;5121218;28;20934;-61
2023/03/10 00:18:41;;;;;;;17.73;11.67;;;;;;;-145.52;100.00;65322.94;5121177;28;20498;-61
2023/03/10 00:22:09;;;;;;;14.13;10.40;;;;;;;-145.52;100.00;65322.94;5121007;28;20557;-62
2023/03/10 00:25:35;;;;;;;13.57;11.53;;;;;;;-145.52;100.00;65322.94;5118937;28;20441;-61
2023/03/10 00:29:02;;;;;;;11.73;9.40;;;;;;;-145.52;100.00;65322.94;5121310;28;20442;-62
2023/03/10 00:32:27;;;;;;;10.93;9.00;;;;;;;-145.52;100.00;65322.94;5114146;28;20535;-62
2023/03/10 00:36:00;;;;;;;9.40;8.13;;;;;;;-145.52;100.00;65322.94;5121281;28;20807;-61
2023/03/10 00:39:25;;;;;;;10.37;8.57;;;;;;;-145.52;100.00;65322.94;5120760;28;20983;-60
2023/03/10 00:42:50;;;;;;;10.63;7.77;;;;;;;-145.52;100.00;65322.94;5120070;28;21084;-60
2023/03/10 00:46:17;;;;;;;11.00;8.57;;;;;;;-145.52;100.00;65322.94;5120840;28;20520;-60
2023/03/10 00:49:42;;;;;;;9.70;8.70;;;;;;;-145.52;100.00;65322.94;5120568;28;20473;-61
2023/03/10 00:53:07;;;;;;;9.57;8.57;;;;;;;-145.52;100.00;65322.94;5119820;28;20486;-61
2023/03/10 00:56:32;;;;;;;10.20;8.70;;;;;;;-145.52;100.00;65322.94;5116858;28;20502;-60
2023/03/10 00:59:58;;;;;;;10.50;8.63;;;;;;;-145.52;100.00;65322.94;5120081;28;20514;-60
2023/03/10 01:03:25;;;;;;;18.40;9.97;;;;;;;-145.52;100.00;65322.94;5120731;28;20497;-61
2023/03/10 01:06:51;;;;;;;9.70;7.90;;;;;;;-145.52;100.00;65322.94;5123017;28;20499;-61
2023/03/10 01:10:18;;;;;;;9.80;8.10;;;;;;;-145.52;100.00;65322.94;5142062;27;20480;-61
2023/03/10 01:13:43;;;;;;;10.00;8.23;;;;;;;-145.52;100.00;65322.94;5124873;27;20549;-61
2023/03/10 01:17:09;;;;;;;12.30;8.27;;;;;;;-145.52;100.00;65322.94;5126316;27;20996;-61
2023/03/10 01:20:35;;;;;;;9.60;8.10;;;;;;;-145.52;100.00;65322.94;5124546;28;20458;-61
2023/03/10 01:24:01;;;;;;;9.77;7.80;;;;;;;-145.52;100.00;65322.94;5124139;27;20525;-62
2023/03/10 01:27:26;;;;;;;16.33;8.43;;;;;;;-145.52;100.00;65322.94;5123177;28;20494;-61
2023/03/10 01:30:51;;;;;;;15.23;9.30;;;;;;;-145.52;100.00;65322.94;5123928;28;20476;-60
2023/03/10 01:34:16;;;;;;;10.90;8.43;;;;;;;-145.52;100.00;65322.94;5123790;28;20481;-61
2023/03/10 01:37:43;;;;;;;28.10;8.43;;;;;;;-145.52;100.00;65322.94;5123982;27;20476;-61
2023/03/10 01:41:11;;;;;;;17.90;8.33;;;;;;;-145.52;100.00;65322.94;5123173;28;20446;-60
2023/03/10 01:44:40;;;;;;;8.37;7.50;;;;;;;-145.52;100.00;65322.94;5124856;28;20516;-60
2023/03/10 01:48:06;;;;;;;7.83;6.80;;;;;;;-145.52;100.00;65322.94;5123822;27;20562;-60
2023/03/10 01:51:31;;;;;;;8.80;7.47;;;;;;;-145.52;100.00;65322.94;5123283;27;20501;-60
2023/03/10 01:54:59;;;;;;;8.40;7.50;;;;;;;-145.52;100.00;65322.94;5123718;28;20466;-61
2023/03/10 01:58:26;;;;;;;9.07;7.60;;;;;;;-145.52;100.00;65322.94;5123235;27;20466;-60
2023/03/10 02:01:52;;;;;;;9.90;8.00;;;;;;;-145.52;100.00;65322.94;5122837;28;20482;-60
2023/03/10 02:05:20;;;;;;;7.80;7.00;;;;;;;-145.52;100.00;65322.94;5123611;27;20496;-60
2023/03/10 02:08:46;;;;;;;7.40;6.33;;;;;;;-145.52;100.00;65322.94;5123671;28;20546;-61
2023/03/10 02:12:14;;;;;;;9.47;7.43;;;;;;;-145.52;100.00;65322.94;5122935;28;20489;-60
2023/03/10 02:15:40;;;;;;;9.17;8.00;;;;;;;-145.52;100.00;65322.94;5123466;28;20433;-61
2023/03/10 02:19:08;;;;;;;8.57;6.77;;;;;;;-145.52;100.00;65322.94;5122056;28;20875;-60
2023/03/10 02:22:39;;;;;;;9.13;6.37;;;;;;;-145.52;100.00;65322.94;5123061;28;20497;-60
2023/03/10 02:26:10;;;;;;;8.53;7.17;;;;;;;-145.52;100.00;65322.94;5123546;28;20477;-60
2023/03/10 02:29:38;;;;;;;7.63;6.83;;;;;;;-145.52;100.00;65322.94;5122897;28;20489;-61
2023/03/10 02:33:04;;;;;;;8.60;7.70;;;;;;;-145.52;100.00;65322.94;5123654;27;20502;-62
2023/03/10 02:36:29;;;;;;;8.57;7.40;;;;;;;-145.52;100.00;65322.94;5122251;28;20910;-61
2023/03/10 02:39:54;;;;;;;8.83;7.20;;;;;;;-145.52;100.00;65322.94;5122832;28;20489;-61
2023/03/10 02:43:22;;;;;;;8.80;7.63;;;;;;;-145.52;100.00;65322.94;5122098;28;20487;-61
2023/03/10 02:46:49;;;;;;;8.47;6.90;;;;;;;-145.52;100.00;65322.94;5122177;27;20557;-61
2023/03/10 02:50:16;;;;;;;8.43;7.57;;;;;;;-145.52;100.00;65322.94;5122616;28;20478;-61
2023/03/10 02:53:43;;;;;;;11.03;7.20;;;;;;;-145.52;100.00;65322.94;5122721;28;20505;-61
2023/03/10 02:57:08;;;;;;;8.30;7.50;;;;;;;-145.52;100.00;65322.94;5121958;28;20486;-63
2023/03/10 03:00:36;;;;;;;7.90;6.50;;;;;;;-145.52;100.00;65322.94;5122050;28;20513;-61
2023/03/10 03:04:03;;;;;;;8.57;6.93;;;;;;;-145.52;100.00;65322.94;5122823;27;20454;-61
2023/03/10 03:07:28;;;;;;;6.77;6.07;;;;;;;-145.52;100.00;65322.94;5122709;28;20503;-61
2023/03/10 03:10:53;;;;;;;8.27;6.30;;;;;;;-145.52;100.00;65322.94;5122405;28;20515;-61
2023/03/10 03:14:19;;;;;;;4.77;4.23;;;;;;;-145.52;100.00;65322.94;5122361;28;20519;-62
2023/03/10 03:17:44;;;;;;;5.40;4.90;;;;;;;-145.52;100.00;65322.94;5121750;27;20494;-62
2023/03/10 03:21:14;;;;;;;5.40;4.83;;;;;;;-145.52;100.00;65322.94;5121358;28;20507;-62
2023/03/10 03:24:40;;;;;;;5.27;4.77;;;;;;;-145.52;100.00;65322.94;5122427;28;20487;-62
2023/03/10 03:28:05;;;;;;;8.43;5.83;;;;;;;-145.52;100.00;65322.94;5121845;28;20486;-63
2023/03/10 03:31:30;;;;;;;6.33;5.73;;;;;;;-145.52;100.00;65322.94;5121313;27;20478;-62
2023/03/10 03:34:58;;;;;;;6.40;5.70;;;;;;;-145.52;100.00;65322.94;5120962;28;20453;-62
2023/03/10 03:38:25;;;;;;;8.90;6.93;;;;;;;-145.52;100.00;65322.94;5121886;28;20533;-62
2023/03/10 03:41:52;;;;;;;7.60;6.70;;;;;;;-145.52;100.00;65322.94;5121190;28;20473;-62
2023/03/10 03:45:18;;;;;;;9.63;7.77;;;;;;;-145.52;100.00;65322.94;5122105;28;20495;-62
2023/03/10 03:48:43;;;;;;;7.93;6.90;;;;;;;-145.52;100.00;65322.94;5118657;28;20482;-62
2023/03/10 03:52:08;;;;;;;10.13;9.03;;;;;;;-145.52;100.00;65322.94;5120932;28;20545;-62
2023/03/10 03:55:35;;;;;;;10.70;9.10;;;;;;;-145.52;100.00;65322.94;5121799;28;20454;-61
2023/03/10 03:59:00;;;;;;;12.63;10.27;;;;;;;-145.52;100.00;65322.94;5120134;28;20858;-61
2023/03/10 04:02:25;;;;;;;11.47;8.90;;;;;;;-145.52;100.00;65322.94;5121016;28;20475;-62
2023/03/10 04:05:51;;;;;;;10.97;8.37;;;;;;;-145.52;100.00;65322.94;5121045;28;20540;-62
2023/03/10 04:09:17;;;;;;;11.87;10.00;;;;;;;-145.52;100.00;65322.94;5121458;28;20973;-62
2023/03/10 04:12:43;;;;;;;8.50;7.57;;;;;;;-145.52;100.00;65322.94;5120405;28;20488;-62
2023/03/10 04:16:09;;;;;;;8.67;7.77;;;;;;;-145.52;100.00;65322.94;5125757;28;20487;-62
2023/03/10 04:19:34;;;;;;;8.87;7.00;;;;;;;-145.52;100.00;65322.94;5120384;28;20474;-62
2023/03/10 04:23:00;;;;;;;7.97;6.90;;;;;;;-145.52;100.00;65322.94;5120982;28;20476;-62
2023/03/10 04:26:26;;;;;;;8.07;7.27;;;;;;;-145.52;100.00;65322.94;5119116;28;20952;-62
2023/03/10 04:29:52;;;;;;;8.10;7.30;;;;;;;-145.52;100.00;65322.94;5120002;28;20475;-62
2023/03/10 04:33:17;;;;;;;7.80;6.93;;;;;;;-145.52;100.00;65322.94;5119410;28;20474;-63
2023/03/10 04:36:43;;;;;;;11.40;7.23;;;;;;;-145.52;100.00;65322.94;5120176;28;20499;-62
2023/03/10 04:40:11;;;;;;;8.40;7.60;;;;;;;-145.52;100.00;65322.94;5130736;27;20476;-63
2023/03/10 04:43:36;;;;;;;8.00;7.20;;;;;;;-145.52;100.00;65322.94;5124454;27;20480;-62
2023/03/10 04:47:02;;;;;;;6.87;6.17;;;;;;;-145.52;100.00;65322.94;5124380;28;20495;-62
2023/03/10 04:50:28;;;;;;;6.67;6.00;;;;;;;-145.52;100.00;65322.94;5124325;28;20478;-62
2023/03/10 04:53:53;;;;;;;7.00;6.30;;;;;;;-145.52;100.00;65322.94;5124663;28;20466;-62
2023/03/10 04:57:18;;;;;;;8.30;6.17;;;;;;;-145.52;100.00;65322.94;5124250;28;20514;-62
2023/03/10 05:00:43;;;;;;;7.50;6.20;;;;;;;-145.52;100.00;65322.94;5123800;28;20476;-61
2023/03/10 05:04:10;;;;;;;7.17;6.43;;;;;;;-145.52;100.00;65322.94;5122325;28;20450;-64
2023/03/10 05:07:35;;;;;;;6.80;5.60;;;;;;;-145.52;100.00;65322.94;5123785;28;20463;-62
2023/03/10 05:11:01;;;;;;;6.67;6.03;;;;;;;-145.52;100.00;65322.94;5123290;28;20470;-63
2023/03/10 05:14:26;;;;;;;6.37;5.67;;;;;;;-145.52;100.00;65322.94;5125191;27;20479;-64
2023/03/10 05:17:52;;;;;;;6.73;6.03;;;;;;;-145.52;100.00;65322.94;5123762;28;20520;-63
2023/03/10 05:21:20;;;;;;;7.80;6.70;;;;;;;-145.52;100.00;65322.94;5112213;28;20479;-63
2023/03/10 05:24:46;;;;;;;7.37;6.60;;;;;;;-145.52;100.00;65322.94;5124808;28;20458;-62
2023/03/10 05:28:11;;;;;;;6.60;6.00;;;;;;;-145.52;100.00;65322.94;5116395;27;20503;-62
2023/03/10 05:31:37;;;;;;;7.97;7.17;;;;;;;-145.52;100.00;65322.94;5121610;28;20486;-61
2023/03/10 05:35:02;;;;;;;8.43;6.60;;;;;;;-145.52;100.00;65322.94;5115648;28;20539;-64
2023/03/10 05:38:29;;;;;;;8.23;7.50;;;;;;;-145.52;100.00;65322.94;5122922;27;20490;-65
2023/03/10 05:41:54;;;;;;;8.47;7.60;;;;;;;-145.52;100.00;65322.94;5123112;27;20499;-63
2023/03/10 05:45:19;;;;;;;7.33;6.63;;;;;;;-145.52;100.00;65322.94;5122742;28;20526;-63
2023/03/10 05:48:44;;;;;;;8.30;6.37;;;;;;;-145.52;100.00;65322.94;5123591;28;20459;-63
2023/03/10 05:52:10;;;;;;;8.13;6.77;;;;;;;-145.52;100.00;65322.94;5139361;27;20457;-63
2023/03/10 05:55:37;;;;;;;9.53;7.77;;;;;;;-145.52;100.00;65322.94;5144255;27;20474;-63
2023/03/10 05:59:02;;;;;;;9.97;6.60;;;;;;;-145.52;100.00;65322.94;5135362;27;20446;-63
2023/03/10 06:02:27;;;;;;;8.70;7.17;;;;;;;-145.52;100.00;65322.94;5123162;28;20479;-63
2023/03/10 06:05:52;;;;;;;7.90;6.60;;;;;;;-145.52;100.00;65322.94;5122861;27;20553;-63
2023/03/10 06:09:18;;;;;;;10.10;7.40;;;;;;;-145.52;100.00;65322.94;5121276;28;20470;-62
2023/03/10 06:12:44;;;;;;;10.93;7.47;;;;;;;-145.52;100.00;65322.94;5122170;28;20485;-64
2023/03/10 06:16:10;;;;;;;10.30;7.17;;;;;;;-145.52;100.00;65322.94;5120491;28;20964;-64
2023/03/10 06:19:35;;;;;;;8.10;6.23;;;;;;;-145.52;100.00;65322.94;5121601;27;20476;-64
2023/03/10 06:23:01;;;;;;;13.27;9.47;;;;;;;-145.52;100.00;65322.94;5122854;28;20808;-64
2023/03/10 06:26:26;;;;;;;11.70;8.27;;;;;;;-145.52;100.00;65322.94;5122767;28;20474;-64
2023/03/10 06:29:52;;;;;;;9.10;7.20;;;;;;;-145.52;100.00;65322.94;5122441;28;20515;-64
2023/03/10 06:33:17;;;;;;;9.17;7.40;;;;;;;-145.52;100.00;65322.94;5127374;27;20537;-64
2023/03/10 06:36:42;;;;;;;10.60;6.70;;;;;;;-145.52;100.00;65322.94;5143643;27;20517;-64
2023/03/10 06:40:11;;;;;;;9.77;7.20;;;;;;;-145.52;100.00;65322.94;5142372;27;20516;-64
2023/03/10 06:43:37;;;;;;;9.03;7.27;;;;;;;-145.52;100.00;65322.94;5141375;27;20477;-64
2023/03/10 06:47:05;;;;;;;8.30;6.17;;;;;;;-145.52;100.00;65322.94;5138696;27;20530;-64
2023/03/10 06:50:30;;;;;;;10.00;7.17;;;;;;;-145.52;100.00;65322.94;5120896;28;20484;-64
2023/03/10 06:53:56;;;;;;;11.17;7.90;;;;;;;-145.52;100.00;65322.94;5109499;28;20462;-64
2023/03/10 06:57:21;;;;;;;9.63;6.80;;;;;;;-145.52;100.00;65322.94;5101177;28;20495;-64
2023/03/10 07:00:46;;;;;;;8.20;6.60;;;;;;;-145.52;100.00;65322.94;5121700;28;20453;-64
2023/03/10 07:04:13;;;;;;;12.27;7.80;;;;;;;-145.52;100.00;65322.94;5118636;28;20449;-64
2023/03/10 07:07:38;;;;;;;11.70;8.17;;;;;;;-145.52;100.00;65322.94;5108413;28;20491;-64
2023/03/10 07:11:04;;;;;;;8.80;6.80;;;;;;;-145.52;100.00;65322.94;5114944;28;20833;-64
2023/03/10 07:14:29;;;;;;;12.07;7.67;;;;;;;-145.52;100.00;65322.94;5107652;27;20769;-64
2023/03/10 07:17:55;;;;;;;10.17;7.23;;;;;;;-145.52;100.00;65322.94;5105695;28;20633;-64
2023/03/10 07:21:22;;;;;;;11.63;8.30;;;;;;;-145.52;100.00;65322.94;5110840;28;20533;-64
2023/03/10 07:24:47;;;;;;;10.00;7.63;;;;;;;-145.52;100.00;65322.94;5116348;28;20482;-64
2023/03/10 07:28:12;;;;;;;11.10;7.77;;;;;;;-145.52;100.00;65322.94;5120300;27;20469;-63
2023/03/10 07:31:38;;;;;;;15.17;6.77;;;;;;;-145.52;100.00;65322.94;5120501;28;20462;-64
2023/03/10 07:35:03;;;;;;;11.90;7.90;;;;;;;-145.52;100.00;65322.94;5117601;27;20482;-64
2023/03/10 07:38:30;;;;;;;10.90;8.17;;;;;;;-145.52;100.00;65322.94;5106708;27;20487;-64
2023/03/10 07:41:55;;;;;;;10.43;7.10;;;;;;;-145.52;100.00;65322.94;5099600;28;20506;-64
2023/03/10 07:45:20;;;;;;;13.33;7.37;;;;;;;-145.52;100.00;65322.94;5122773;27;20530;-64
2023/03/10 07:48:45;;;;;;;9.93;7.47;;;;;;;-145.52;100.00;65322.94;5105344;28;20489;-64
2023/03/10 07:52:10;;;;;;;14.60;9.03;;;;;;;-145.52;100.00;65322.94;5103462;28;20475;-64
2023/03/10 07:55:37;;;;;;;11.30;7.20;;;;;;;-145.52;100.00;65322.94;5108466;28;20479;-63
2023/03/10 07:59:02;;;;;;;12.03;7.20;;;;;;;-145.52;100.00;65322.94;5119130;28;20525;-63
2023/03/10 08:02:28;;;;;;;11.77;7.20;;;;;;;-145.52;100.00;65322.94;5118348;28;20581;-63
2023/03/10 08:05:53;;;;;;;9.53;6.43;;;;;;;-145.52;100.00;65322.94;5120242;28;20449;-62
2023/03/10 08:09:18;;;;;;;7.67;5.97;;;;;;;-145.52;100.00;65322.94;5120162;28;20480;-63
2023/03/10 08:12:45;;;;;;;10.53;7.10;;;;;;;-145.52;100.00;65322.94;5122159;27;20595;-63
2023/03/10 08:16:10;;;;;;;10.13;6.70;;;;;;;-145.52;100.00;65322.94;5123216;28;20504;-63
2023/03/10 08:19:37;;;;;;;14.20;8.33;;;;;;;-145.52;100.00;65322.94;5118888;28;20466;-63
2023/03/10 08:23:02;;;;;;;7.90;5.73;;;;;;;-145.52;100.00;65322.94;5119860;28;20470;-63
2023/03/10 08:26:27;;;;;;;9.40;6.60;;;;;;;-145.52;100.00;65322.94;5119561;28;20474;-63
2023/03/10 08:29:54;;;;;;;8.70;6.60;;;;;;;-145.52;100.00;65322.94;5119640;28;20496;-63
2023/03/10 08:33:20;;;;;;;7.80;6.00;;;;;;;-145.52;100.00;65322.94;5119337;28;20505;-62
2023/03/10 08:36:45;;;;;;;9.40;6.17;;;;;;;-145.52;100.00;65322.94;5114622;28;20487;-63
2023/03/10 08:40:11;;;;;;;10.07;7.77;;;;;;;-145.52;100.00;65322.94;5119309;28;20466;-62
2023/03/10 08:43:37;;;;;;;10.27;7.60;;;;;;;-145.52;100.00;65322.94;5118298;28;20578;-63
2023/03/10 08:47:04;;;;;;;10.37;7.97;;;;;;;-145.52;100.00;65322.94;5117939;28;20930;-63
2023/03/10 08:50:30;;;;;;;11.77;8.10;;;;;;;-145.52;100.00;65322.94;5119732;28;20479;-63
2023/03/10 08:53:55;;;;;;;12.37;7.87;;;;;;;-145.52;100.00;65322.94;5120320;28;20430;-63
2023/03/10 08:57:21;;;;;;;11.90;9.07;;;;;;;-145.52;100.00;65322.94;5119395;28;20522;-62
2023/03/10 09:00:47;;;;;;;11.13;7.83;;;;;;;-145.52;100.00;65322.94;5118729;28;20975;-63
2023/03/10 09:04:14;;;;;;;14.63;8.93;;;;;;;-145.52;100.00;65322.94;5119318;28;20507;-63
2023/03/10 09:07:39;;;;;;;11.70;8.23;;;;;;;-145.52;100.00;65322.94;5119160;28;21007;-63
2023/03/10 09:11:05;;;;;;;12.60;9.00;;;;;;;-145.52;100.00;65322.94;5118735;28;20451;-63
2023/03/10 09:14:30;;;;;;;14.80;9.90;;;;;;;-145.52;100.00;65322.94;5120005;28;20493;-63
2023/03/10 09:17:55;;;;;;;13.60;9.53;;;;;;;-145.52;100.00;65322.94;5116678;28;20474;-63
2023/03/10 09:21:22;;;;;;;11.60;8.70;;;;;;;-145.52;100.00;65322.94;5118976;28;20465;-63
2023/03/10 09:24:48;;;;;;;14.10;9.43;;;;;;;-145.52;100.00;65322.94;5115955;28;20466;-63
2023/03/10 09:28:13;;;;;;;13.90;9.60;;;;;;;-145.52;100.00;65322.94;5122034;27;20498;-63
2023/03/10 09:31:39;;;;;;;11.50;8.40;;;;;;;-145.52;100.00;65322.94;5122639;28;20474;-63
2023/03/10 09:35:06;;;;;;;10.40;8.10;;;;;;;-145.52;100.00;65322.94;5123644;28;20479;-64
2023/03/10 09:38:32;;;;;;;9.53;7.90;;;;;;;-145.52;100.00;65322.94;5106136;28;20469;-63
2023/03/10 09:42:05;;;;;;;11.30;8.80;;;;;;;-145.52;100.00;65322.94;5101718;28;20482;-64
2023/03/10 09:45:36;;;;;;;12.93;7.17;;;;;;;-145.52;100.00;65322.94;5102879;28;20455;-64
2023/03/10 09:49:09;;;;;;;11.60;8.10;;;;;;;-145.52;100.00;65322.94;5101521;28;20571;-63
2023/03/10 09:52:40;;;;;;;11.10;8.33;;;;;;;-145.52;100.00;65322.94;5102317;28;20854;-63
2023/03/10 09:56:13;;;;;;;8.67;6.77;;;;;;;-145.52;100.00;65322.94;5100917;28;20517;-63
2023/03/10 09:59:41;;;;;;;8.80;7.50;;;;;;;-145.52;100.00;65322.94;5108292;28;20471;-63
2023/03/10 10:03:14;;;;;;;25.50;13.07;;;;;;;-145.52;100.00;65322.94;5121423;28;20525;-63
2023/03/10 10:06:41;;;;;;;16.67;9.30;;;;;;;-145.52;100.00;65322.94;5125715;27;21031;-63
2023/03/10 10:10:14;;;;;;;10.50;7.47;;;;;;;-145.52;100.00;65322.94;5129002;27;20476;-63
2023/03/10 10:13:39;;;;;;;11.00;7.07;;;;;;;-145.52;100.00;65322.94;5122253;28;20473;-62
2023/03/10 10:17:09;;;;;;;9.83;7.57;;;;;;;-145.52;100.00;65322.94;5101077;28;20938;-62
2023/03/10 10:20:38;;;;;;;11.57;7.90;;;;;;;-145.52;100.00;65322.94;5101864;28;20511;-62
2023/03/10 10:24:05;;;;;;;9.17;7.23;;;;;;;-145.52;100.00;65322.94;5101509;28;20502;-63
2023/03/10 10:27:31;;;;;;;11.47;6.70;;;;;;;-145.52;100.00;65322.94;5121634;27;21045;-63
2023/03/10 10:31:09;;;;;;;9.37;7.10;;;;;;;-145.52;100.00;65322.94;5121650;28;20489;-64
2023/03/10 10:34:49;;;;;;;10.40;6.77;;;;;;;-145.52;100.00;65322.94;5122270;27;20478;-63
2023/03/10 10:38:27;;;;;;;8.10;6.10;;;;;;;-145.52;100.00;65322.94;5120235;28;20539;-62
2023/03/10 10:42:12;;;;;;;7.10;5.50;;;;;;;-145.52;100.00;65322.94;5121471;28;20492;-62
2023/03/10 10:45:40;;;;;;;9.03;6.50;;;;;;;-145.52;100.00;65322.94;5122150;28;20433;-63
2023/03/10 10:49:07;;;;;;;7.10;5.23;;;;;;;-145.52;100.00;65322.94;5142511;27;20472;-63
2023/03/10 10:52:33;;;;;;;8.17;5.70;;;;;;;-145.52;100.00;65322.94;5119982;28;20472;-64
2023/03/10 10:55:59;;;;;;;8.77;6.00;;;;;;;-145.52;100.00;65322.94;5121737;28;20626;-63
2023/03/10 10:59:28;;;;;;;6.10;5.50;;;;;;;-145.52;100.00;65322.94;5120213;28;20483;-63
2023/03/10 11:02:56;;;;;;;5.90;4.40;;;;;;;-145.52;100.00;65322.94;5121895;27;20469;-64
2023/03/10 11:06:24;;;;;;;8.50;5.80;;;;;;;-145.52;100.00;65322.94;5120297;28;20452;-62
2023/03/10 11:09:49;;;;;;;7.33;5.50;;;;;;;-145.52;100.00;65322.94;5121409;28;20533;-63
2023/03/10 11:13:17;;;;;;;6.10;4.50;;;;;;;-145.52;100.00;65322.94;5121501;28;20473;-63
2023/03/10 11:16:50;;;;;;;5.73;4.63;;;;;;;-145.52;100.00;65322.94;5120182;28;20468;-63
2023/03/10 11:20:23;;;;;;;6.57;5.97;;;;;;;-145.52;100.00;65322.94;5120723;28;20957;-63
2023/03/10 11:23:53;;;;;;;5.37;4.87;;;;;;;-145.52;100.00;65322.94;5120788;28;20445;-62
2023/03/10 11:27:24;;;;;;;6.90;5.80;;;;;;;-145.52;100.00;65322.94;5120405;28;21116;-63
2023/03/10 11:30:56;;;;;;;7.23;5.30;;;;;;;-145.52;100.00;65322.94;5120368;28;20492;-63
2023/03/10 11:34:29;;;;;;;10.00;8.10;;;;;;;-145.52;100.00;65322.94;5120889;28;20466;-62
2023/03/10 11:38:02;;;;;;;8.20;7.20;;;;;;;-145.52;100.00;65322.94;5120310;28;20524;-62
2023/03/10 11:41:31;;;;;;;5.60;5.10;;;;;;;-145.52;100.00;65322.94;5111789;27;20482;-63
2023/03/10 11:45:04;;;;;;;4.37;3.80;;;;;;;-145.52;100.00;65322.94;5115988;28;20445;-62
2023/03/10 11:48:42;;;;;;;7.50;4.20;;;;;;;-145.52;100.00;65322.94;5120539;28;20473;-64
2023/03/10 11:52:13;;;;;;;4.93;4.43;;;;;;;-145.52;100.00;65322.94;5119846;27;20506;-62
2023/03/10 11:55:41;;;;;;;4.73;4.17;;;;;;;-145.52;100.00;65322.94;5120713;28;20437;-62
2023/03/10 11:59:18;;;;;;;6.17;4.90;;;;;;;-145.52;100.00;65322.94;5124591;27;20468;-62
2023/03/10 12:02:48;;;;;;;6.70;4.97;;;;;;;-145.52;100.00;65322.94;5137947;27;20951;-62
2023/03/10 12:06:17;;;;;;;4.97;4.30;;;;;;;-145.52;100.00;65322.94;5115804;28;20470;-62
2023/03/10 12:09:45;;;;;;;4.80;4.40;;;;;;;-145.52;100.00;65322.94;5119283;28;20437;-62
2023/03/10 12:13:14;;;;;;;4.90;4.40;;;;;;;-145.52;100.00;65322.94;5119903;28;20468;-62
2023/03/10 12:16:40;;;;;;;4.23;3.80;;;;;;;-145.52;100.00;65322.94;5119658;28;20472;-62
2023/03/10 12:20:22;;;;;;;5.13;4.47;;;;;;;-145.52;100.00;65322.94;5105142;28;20465;-61
2023/03/10 12:23:49;;;;;;;4.50;4.00;;;;;;;-145.52;100.00;65322.94;5120210;28;20432;-62
2023/03/10 12:27:51;;;;;;;5.10;3.70;;;;;;;-145.52;100.00;65322.94;5120550;27;20729;-61
2023/03/10 12:31:44;;;;;;;4.30;3.90;;;;;;;-145.52;100.00;65322.94;5113842;28;20468;-62
2023/03/10 12:35:41;;;;;;;6.63;4.43;;;;;;;-145.52;100.00;65322.94;5100879;28;20453;-62
2023/03/10 12:39:42;;;;;;;4.87;4.37;;;;;;;-145.52;100.00;65322.94;5120129;28;20983;-62
2023/03/10 12:43:59;;;;;;;4.50;4.10;;;;;;;-145.52;100.00;65322.94;5054025;28;20546;-62
2023/03/10 12:47:38;;;;;;;6.17;5.40;;;;;;;-145.52;100.00;65322.94;4986125;28;20512;-62
2023/03/10 12:51:14;;;;;;;5.00;4.50;;;;;;;-145.52;100.00;65322.94;4997394;28;20543;-62
2023/03/10 12:55:10;;;;;;;7.57;6.00;;;;;;;-145.52;100.00;65322.94;4996953;28;20464;-61
2023/03/10 12:58:39;;;;;;;6.80;4.90;;;;;;;-145.52;100.00;65322.94;4997350;28;20559;-61
2023/03/10 13:02:09;;;;;;;5.80;5.10;;;;;;;-145.52;100.00;65322.94;4999019;28;20584;-62
2023/03/10 13:05:35;;;;;;;5.97;5.13;;;;;;;-145.52;100.00;65322.94;4999950;28;21010;-62
2023/03/10 13:09:09;;;;;;;8.67;6.73;;;;;;;-145.52;100.00;65322.94;4999426;28;20484;-62
2023/03/10 13:12:37;;;;;;;7.60;6.90;;;;;;;-145.52;100.00;65322.94;5011343;28;20480;-62
2023/03/10 13:16:03;;;;;;;7.57;6.80;;;;;;;-145.52;100.00;65322.94;5080541;28;20479;-62
2023/03/10 13:19:29;;;;;;;8.60;7.13;;;;;;;-145.52;100.00;65322.94;5124822;27;20582;-62
2023/03/10 13:22:55;;;;;;;8.70;6.90;;;;;;;-145.52;100.00;65322.94;5122916;28;21065;-62
2023/03/10 13:26:21;;;;;;;8.30;6.80;;;;;;;-145.52;100.00;65322.94;5123225;27;20439;-61
2023/03/10 13:29:54;;;;;;;7.43;6.33;;;;;;;-145.52;100.00;65322.94;5123237;27;20454;-62
2023/03/10 13:33:20;;;;;;;8.60;7.13;;;;;;;-145.52;100.00;65322.94;5123074;27;20828;-62
2023/03/10 13:36:45;;;;;;;8.43;6.97;;;;;;;-145.52;100.00;65322.94;5116302;28;20472;-62
2023/03/10 13:40:14;;;;;;;9.10;7.23;;;;;;;-145.52;100.00;65322.94;5114821;28;20444;-62
2023/03/10 13:43:40;;;;;;;10.53;8.67;;;;;;;-145.52;100.00;65322.94;5104502;28;20470;-63
2023/03/10 13:47:14;;;;;;;11.63;9.03;;;;;;;-145.52;100.00;65322.94;5110103;27;20508;-62
2023/03/10 13:50:41;;;;;;;9.80;8.80;;;;;;;-145.52;100.00;65322.94;5122839;28;20647;-62
2023/03/10 13:54:22;;;;;;;8.70;7.60;;;;;;;-145.52;100.00;65322.94;5123345;28;20987;-62
2023/03/10 13:57:49;;;;;;;12.17;8.43;;;;;;;-145.52;100.00;65322.94;5121805;27;20466;-63
2023/03/10 14:01:18;;;;;;;9.50;8.33;;;;;;;-145.52;100.00;65322.94;5121557;28;20859;-62
2023/03/10 14:04:51;;;;;;;9.60;8.23;;;;;;;-145.52;100.00;65322.94;5122902;28;20459;-63
2023/03/10 14:08:18;;;;;;;11.93;9.27;;;;;;;-145.52;100.00;65322.94;5121258;28;20475;-62
2023/03/10 14:11:44;;;;;;;12.33;9.27;;;;;;;-145.52;100.00;65322.94;5121204;27;20470;-62
2023/03/10 14:15:11;;;;;;;11.37;9.60;;;;;;;-145.52;100.00;65322.94;5120950;28;20749;-62
2023/03/10 14:18:38;;;;;;;12.40;8.83;;;;;;;-145.52;100.00;65322.94;5128672;27;20481;-62
2023/03/10 14:22:22;;;;;;;13.57;9.83;;;;;;;-145.52;100.00;65322.94;5120416;27;20488;-62
2023/03/10 14:25:48;;;;;;;11.37;9.23;;;;;;;-145.52;100.00;65322.94;5109233;28;20474;-62
2023/03/10 14:29:16;;;;;;;16.27;10.77;;;;;;;-145.52;100.00;65322.94;5104005;28;20452;-62
2023/03/10 14:32:43;;;;;;;15.00;9.93;;;;;;;-145.52;100.00;65322.94;5120428;28;20469;-62
2023/03/10 14:36:10;;;;;;;18.53;11.83;;;;;;;-145.52;100.00;65322.94;5121251;28;20443;-62
2023/03/10 14:39:36;;;;;;;16.00;10.10;;;;;;;-145.52;100.00;65322.94;5120867;28;20496;-62
2023/03/10 14:43:01;;;;;;;11.63;10.00;;;;;;;-145.52;100.00;65322.94;5132271;27;20491;-62
2023/03/10 14:46:28;;;;;;;13.77;10.27;;;;;;;-145.52;100.00;65322.94;5128941;27;20538;-62
2023/03/10 14:49:55;;;;;;;15.67;11.53;;;;;;;-145.52;100.00;65322.94;5121135;28;20467;-62
2023/03/10 14:53:20;;;;;;;11.30;9.83;;;;;;;-145.52;100.00;65322.94;5119389;28;20554;-62
2023/03/10 14:56:46;;;;;;;14.27;9.73;;;;;;;-145.52;100.00;65322.94;5128659;27;20493;-63
2023/03/10 15:00:14;;;;;;;15.97;11.83;;;;;;;-145.52;100.00;65322.94;5120929;28;20558;-62
2023/03/10 15:03:40;;;;;;;18.80;11.03;;;;;;;-145.52;100.00;65322.94;5120741;28;20477;-62
2023/03/10 15:07:09;;;;;;;16.80;12.10;;;;;;;-145.52;100.00;65322.94;5120257;28;20524;-62
2023/03/10 15:10:35;;;;;;;13.23;11.10;;;;;;;-145.52;100.00;65322.94;5117981;27;21383;-62
2023/03/10 15:14:00;;;;;;;12.37;10.60;;;;;;;-145.52;100.00;65322.94;5117579;28;20494;-65
2023/03/10 15:17:26;;;;;;;10.77;8.47;;;;;;;-145.52;100.00;65322.94;5121357;28;20464;-65
2023/03/10 15:20:51;;;;;;;11.30;6.67;;;;;;;-145.52;100.00;65322.94;5121017;28;20494;-65
2023/03/10 15:24:17;;;;;;;13.47;10.83;;;;;;;-145.52;100.00;65322.94;5120899;28;20451;-64
2023/03/10 15:27:43;;;;;;;10.27;8.57;;;;;;;-145.52;100.00;65322.94;5123160;27;20473;-65
2023/03/10 15:31:13;;;;;;;10.57;7.20;;;;;;;-145.52;100.00;65322.94;5118103;28;20490;-65
2023/03/10 15:34:38;;;;;;;17.97;12.17;;;;;;;-145.52;100.00;65322.94;5121462;28;20504;-65
2023/03/10 15:38:03;;;;;;;12.37;9.30;;;;;;;-145.52;100.00;65322.94;5120109;28;20470;-64